메인 페이지
METAR-TAF:

METAR-TAF

공항 :

요한 바오로 2세 공항

Ponta Delgada, 아조레스, 포르투갈

위도: 37-44N, 경도: 025-42W, 고도: 71m

현재 날씨관측

예보는 20분 전, 23:30시(UTC)에 발표되었습니다.
동북동10kt북동풍과 풍을 오가는
온도 13°C
습도 62%
기압 1020 hPa
시정 10km 이상
고도 2000ft 상공 구름 조금
고도 4000ft 상공 구름 보통

METAR: LPPD 312330Z 07010KT 040V100 9999 FEW020 SCT040 13/06 Q1020

시각: 23:50 (23:50 UTC)

예보

예보는 50분 전, 23:00시(UTC)에 발표되었습니다.
예보 대상 시간: 01일 00시부터 01일 24시까지 (UTC)
10kt
시정 10km 이상
고도 2500ft 상공 구름 조금
고도 4000ft 상공 구름 보통
전환 중
01일 06시부터 01일 09시까지 (UTC)
동남동20kt
고도 1200ft 상공 구름 보통
고도 2500ft 상공 구름 많음
일시적
01일 12시부터 01일 24시까지 (UTC)
동남동25kt, 순간 최대 풍속 37kt
시정: 5000m
고도 500ft 상공 구름 보통
고도 1000ft 상공 구름 많음
고도 1800ft 상공 구름 조금, 타워링 적운.
비, 박무
확률 30% :
일시적
01일 15시부터 01일 21시까지 (UTC)
동남동30kt, 순간 최대 풍속 43kt

TAF: LPPD 312300Z 0100/0124 09010KT 9999 FEW025 SCT040 BECMG 0106/0109 12020KT SCT012 BKN025 TEMPO 0112/0124 12025G37KT 5000 RA BR SCT005 BKN010 FEW018TCU PROB30 TEMPO 0115/0121 12030G43KT

4,000개 이상의 공항 관측 자료 및 예보 (METAR 및 TAF 보고).

지도상에서 검색 가능한 기상관측소가 노란 점과 빨간 점으로 표시되어 있습니다.

기상관측소 명을 보려면 표시 위로 마우스를 이동하세요.

날씨 관측과 예보를 보려면 클릭하세요.

지도 변경 : 확대하려면 엑스 표시가 있는 녹색 버튼, 축소하려면 빼기 표시가 있는 녹색 버튼, 다음 페이지의 지도를 보려면 녹색 화살표를 클릭하세요.


METAR-TAF: